Time;durP1;ratioP1;P1;durP2;ratioP2;P2;SDS_P1;SDS_P2;PMS_P1;PMS_P2;Temp;Humidity;BMP_temperature;BMP_pressure;BME280_temperature;BME280_humidity;BME280_pressure;Samples;Min_cycle;Max_cycle;Signal;HPM_P1;HPM_P2
2021/07/23 00:00:28;;;;;;;0.65;0.65;;;;;;;20.33;68.82;92887.34;4862121;29;20049;-92
2021/07/23 00:04:10;;;;;;;0.80;0.80;;;;;;;20.42;68.91;92919.13;4877976;29;20045;-94
2021/07/23 00:07:11;;;;;;;1.45;1.05;;;;;;;19.91;69.81;92867.19;4849409;29;20281;-94
2021/07/23 00:13:19;;;;;;;3.25;1.25;;;;;;;19.95;70.22;92888.56;4821896;29;20058;-94
2021/07/23 00:20:03;;;;;;;0.50;0.50;;;;;;;19.79;72.31;92877.03;4840851;29;20495;-94
2021/07/23 00:26:21;;;;;;;;;;;;;;;;;;;;;
2021/07/23 00:36:02;;;;;;;;;;;;;;;;;;;;;
2021/07/23 00:42:50;;;;;;;;;;;;;;;;;;;;;
2021/07/23 00:46:09;;;;;;;;;;;;;;;;;;;;;
2021/07/23 00:48:56;;;;;;;1.58;1.17;;;;;;;20.03;70.30;92924.84;4850696;29;20067;-94
2021/07/23 00:51:53;;;;;;;1.33;1.17;;;;;;;19.76;70.56;92867.84;4835751;29;20053;-93
2021/07/23 00:55:15;;;;;;;;;;;;;;;;;;;;;
2021/07/23 00:58:34;;;;;;;;;;;;;;;;;;;;;
2021/07/23 01:01:26;;;;;;;;;;;;;;;;;;;;;
2021/07/23 01:04:26;;;;;;;1.52;0.98;;;;;;;19.88;70.20;92867.06;4813712;29;20060;-95
2021/07/23 01:07:28;;;;;;;;;;;;;;;;;;;;;
2021/07/23 01:10:38;;;;;;;0.38;0.38;;;;;;;19.66;70.46;92847.81;4879307;29;20067;-94
2021/07/23 01:13:46;;;;;;;0.98;0.73;;;;;;;19.78;70.40;92865.66;4812556;29;20055;-94
2021/07/23 01:16:44;;;;;;;1.00;0.63;;;;;;;19.72;70.25;92866.97;4870600;29;20052;-94
2021/07/23 01:19:52;;;;;;;1.08;0.82;;;;;;;19.63;70.09;92850.34;4864917;29;20059;-93
2021/07/23 01:22:53;;;;;;;;;;;;;;;;;;;;;
2021/07/23 01:29:38;;;;;;;;;;;;;;;;;;;;;
2021/07/23 01:32:30;;;;;;;0.63;0.63;;;;;;;19.65;69.41;92848.91;4879670;29;20071;-94
2021/07/23 01:35:37;;;;;;;0.60;0.60;;;;;;;19.84;68.94;92887.47;4873069;29;20049;-95
2021/07/23 01:38:51;;;;;;;0.47;0.45;;;;;;;19.90;68.65;92883.44;4865780;29;20056;-94
2021/07/23 01:42:07;;;;;;;;;;;;;;;;;;;;;
2021/07/23 01:48:51;;;;;;;;;;;;;;;;;;;;;
2021/07/23 01:51:44;;;;;;;0.40;0.40;;;;;;;19.53;67.33;92833.75;4879100;29;20078;-94
2021/07/23 01:55:09;;;;;;;1.90;0.63;;;;;;;19.71;67.05;92860.88;4851302;29;20049;-94
2021/07/23 01:57:58;;;;;;;1.13;0.88;;;;;;;19.77;67.28;92866.75;4875806;29;20056;-94
2021/07/23 02:01:07;;;;;;;;;;;;;;;;;;;;;
2021/07/23 02:07:43;;;;;;;0.90;0.70;;;;;;;19.71;66.77;92871.50;4879830;29;20063;-94
2021/07/23 02:14:06;;;;;;;;;;;;;;;;;;;;;
2021/07/23 02:17:15;;;;;;;;;;;;;;;;;;;;;
2021/07/23 02:23:49;;;;;;;0.93;0.70;;;;;;;19.61;67.00;92866.63;4869720;29;20399;-94
2021/07/23 02:27:00;;;;;;;1.77;1.33;;;;;;;19.42;67.26;92839.88;4875006;29;20066;-94
2021/07/23 02:30:10;;;;;;;0.50;0.40;;;;;;;19.49;67.07;92848.81;4851573;29;20738;-95
2021/07/23 02:32:57;;;;;;;0.73;0.60;;;;;;;19.31;67.03;92816.41;4869551;29;20045;-95
2021/07/23 02:35:42;;;;;;;1.98;0.90;;;;;;;19.46;66.74;92844.16;4880495;29;20061;-94
2021/07/23 02:38:33;;;;;;;;;;;;;;;19.65;66.98;92872.81;4883189;29;20144;-96
2021/07/23 02:41:48;;;;;;;0.47;0.47;;;;;;;19.30;67.06;92819.41;4881084;29;19926;-94
2021/07/23 02:44:55;;;;;;;2.60;1.70;;;;;;;19.31;66.75;92827.03;4863623;29;20048;-95
2021/07/23 02:47:41;;;;;;;1.13;0.90;;;;;;;19.65;67.00;92872.81;4848263;29;20084;-95
2021/07/23 02:50:40;;;;;;;0.90;0.68;;;;;;;19.53;67.24;92848.94;4852444;29;20045;-95
2021/07/23 02:53:59;;;;;;;1.73;0.90;;;;;;;19.60;67.45;92859.75;4848298;29;20525;-94
2021/07/23 02:57:10;;;;;;;2.35;0.63;;;;;;;19.49;67.87;92840.84;4882970;29;20157;-94
2021/07/23 03:00:07;;;;;;;1.08;1.00;;;;;;;19.55;67.78;92849.38;4854523;29;20093;-96
2021/07/23 03:02:39;;;;;;;;;;;;;;;19.63;67.68;92860.97;4862531;29;20052;-95
2021/07/23 03:06:02;;;;;;;;;;;;;;;;;;;;;
2021/07/23 03:08:58;;;;;;;;;;;;;;;;;;;;;
2021/07/23 03:15:16;;;;;;;0.32;0.25;;;;;;;19.21;67.83;92806.25;4881460;29;20051;-94
2021/07/23 03:18:07;;;;;;;0.98;0.50;;;;;;;19.52;67.97;92857.97;4856810;29;20431;-94
2021/07/23 03:21:30;;;;;;;0.35;0.35;;;;;;;19.46;67.77;92857.44;4849079;29;20080;-95
2021/07/23 03:24:24;;;;;;;1.13;0.63;;;;;;;19.12;68.03;92800.28;4862577;29;20041;-94
2021/07/23 03:34:28;;;;;;;;;;;;;;;;;;;;;
2021/07/23 03:37:37;;;;;;;0.73;0.57;;;;;;;19.20;67.75;92799.38;4874515;29;20503;-94
2021/07/23 03:40:20;;;;;;;1.42;1.10;;;;;;;19.09;68.20;92791.09;4855310;29;20057;-93
2021/07/23 03:43:32;;;;;;;1.67;1.35;;;;;;;19.01;68.13;92786.66;4850917;29;20052;-94
2021/07/23 03:46:29;;;;;;;2.65;1.00;;;;;;;19.22;68.14;92826.34;4863087;29;20135;-94
2021/07/23 03:49:13;;;;;;;2.13;1.35;;;;;;;18.86;68.44;92777.47;4823948;29;20053;-93
2021/07/23 03:55:45;;;;;;;;;;;;;;;;;;;;;
2021/07/23 04:05:32;;;;;;;0.93;0.70;;;;;;;18.82;69.10;92826.97;4869515;29;20048;-96
2021/07/23 04:08:12;;;;;;;2.20;1.00;;;;;;;18.67;68.95;92806.38;4865382;29;20502;-95
2021/07/23 04:15:24;;;;;;;1.27;1.15;;;;;;;18.38;69.63;92781.56;4858327;29;20045;-95
2021/07/23 04:19:17;;;;;;;1.50;1.00;;;;;;;18.33;69.99;92789.72;4872541;29;20056;-96
2021/07/23 04:22:57;;;;;;;;;;;;;;;;;;;;;
2021/07/23 04:26:48;;;;;;;;;;;;;;;;;;;;;
2021/07/23 04:34:07;;;;;;;;;;;;;;;;;;;;;
2021/07/23 04:37:31;;;;;;;0.22;0.22;;;;;;;18.37;70.47;92817.09;4847252;29;20432;-96
2021/07/23 04:44:51;;;;;;;0.80;0.77;;;;;;;18.21;70.42;92776.41;4863398;29;20132;-95
2021/07/23 05:04:20;;;;;;;1.08;0.65;;;;;;;18.78;70.42;92827.94;4934655;29;20508;-77
2021/07/23 05:06:46;;;;;;;0.90;0.80;;;;;;;18.83;70.62;92833.84;4905135;29;20039;-75
2021/07/23 05:09:11;;;;;;;1.15;0.98;;;;;;;18.88;70.28;92838.91;4905558;29;20107;-77
2021/07/23 05:11:42;;;;;;;2.15;0.90;;;;;;;18.91;70.39;92835.63;4929580;29;20553;-75
2021/07/23 05:14:08;;;;;;;1.23;1.05;;;;;;;18.97;70.64;92830.09;4938980;29;20060;-77
2021/07/23 05:16:35;;;;;;;0.52;0.52;;;;;;;19.04;70.44;92833.75;4920035;29;20081;-77
2021/07/23 05:19:01;;;;;;;1.25;0.95;;;;;;;19.12;70.33;92826.81;4919701;29;20032;-77
2021/07/23 05:21:29;;;;;;;1.35;0.85;;;;;;;19.23;70.22;92833.22;4918837;29;20044;-78
2021/07/23 05:23:54;;;;;;;1.65;0.90;;;;;;;19.25;70.27;92819.59;4927523;29;20040;-77
2021/07/23 05:26:20;;;;;;;0.57;0.57;;;;;;;19.40;70.14;92829.56;4935204;29;20413;-78
2021/07/23 05:28:46;;;;;;;0.57;0.55;;;;;;;19.47;69.87;92834.31;4934319;29;20499;-76
2021/07/23 05:31:12;;;;;;;0.85;0.77;;;;;;;19.55;69.69;92836.09;4899778;29;20071;-77
2021/07/23 05:33:37;;;;;;;0.52;0.50;;;;;;;19.65;69.64;92840.16;4903749;29;20076;-79
2021/07/23 05:36:03;;;;;;;0.82;0.80;;;;;;;19.71;69.34;92829.03;4922811;29;20052;-79
2021/07/23 05:38:29;;;;;;;1.38;0.95;;;;;;;19.77;69.07;92832.25;4938579;29;20040;-79
2021/07/23 05:40:54;;;;;;;1.98;1.48;;;;;;;19.84;69.13;92831.69;4924297;29;20147;-77
2021/07/23 05:43:20;;;;;;;1.80;1.05;;;;;;;19.92;69.71;92833.41;4943254;29;20080;-78
2021/07/23 05:45:46;;;;;;;1.60;1.05;;;;;;;20.00;69.84;92827.19;4939406;29;20079;-78
2021/07/23 05:48:11;;;;;;;2.05;1.33;;;;;;;20.11;69.32;92830.94;4917891;29;20277;-77
2021/07/23 05:50:37;;;;;;;5.05;1.35;;;;;;;20.20;70.07;92827.34;4869472;29;20062;-77
2021/07/23 05:53:03;;;;;;;0.55;0.47;;;;;;;20.34;69.60;92833.84;4931294;29;20072;-77
2021/07/23 05:55:28;;;;;;;0.95;0.75;;;;;;;20.55;68.70;92828.31;4933258;29;20070;-77
2021/07/23 05:57:57;;;;;;;0.70;0.70;;;;;;;20.74;68.49;92829.59;4930213;29;20040;-77
2021/07/23 06:00:26;;;;;;;0.90;0.80;;;;;;;21.05;67.69;92836.06;4906680;29;20369;-77
2021/07/23 06:03:03;;;;;;;1.52;1.27;;;;;;;21.75;65.90;92832.78;4899872;29;20051;-77
2021/07/23 06:05:28;;;;;;;0.70;0.70;;;;;;;23.20;60.71;92821.91;4930946;29;20056;-77
2021/07/23 06:07:54;;;;;;;0.70;0.68;;;;;;;22.96;60.68;92831.00;4915664;29;20059;-77
2021/07/23 06:10:19;;;;;;;1.90;1.52;;;;;;;22.65;63.06;92832.72;4899585;29;20036;-76
2021/07/23 06:12:45;;;;;;;0.70;0.68;;;;;;;22.24;65.86;92833.09;4918164;29;20469;-76
2021/07/23 06:15:11;;;;;;;1.50;1.17;;;;;;;22.06;67.11;92834.59;4915963;29;20046;-76
2021/07/23 06:17:36;;;;;;;1.27;1.00;;;;;;;22.93;64.20;92827.13;4917746;29;20517;-76
2021/07/23 06:20:03;;;;;;;1.02;0.93;;;;;;;22.65;64.88;92838.84;4901598;29;20082;-76
2021/07/23 06:22:29;;;;;;;1.65;1.00;;;;;;;22.66;65.25;92832.38;4915788;29;20039;-76
2021/07/23 06:24:56;;;;;;;1.88;1.13;;;;;;;23.86;62.18;92836.66;4934283;29;20501;-77
2021/07/23 06:27:22;;;;;;;1.67;1.27;;;;;;;25.30;55.66;92832.97;4934413;29;20409;-76
2021/07/23 06:29:53;;;;;;;1.33;1.23;;;;;;;26.61;52.42;92825.38;4916973;29;20048;-75
2021/07/23 06:32:19;;;;;;;0.88;0.82;;;;;;;26.96;51.17;92830.84;4897961;29;20044;-77
2021/07/23 06:34:44;;;;;;;0.80;0.80;;;;;;;26.72;52.84;92832.31;4913889;29;20060;-76
2021/07/23 06:37:10;;;;;;;3.70;1.45;;;;;;;26.32;53.42;92831.41;4898040;29;20426;-76
2021/07/23 06:39:36;;;;;;;2.47;1.42;;;;;;;27.54;50.22;92826.34;4914296;29;20036;-76
2021/07/23 06:42:01;;;;;;;1.83;1.45;;;;;;;26.96;51.49;92819.34;4916589;29;20148;-77
2021/07/23 06:44:29;;;;;;;2.08;1.20;;;;;;;27.24;51.53;92825.94;4934369;29;20517;-77
2021/07/23 06:46:55;;;;;;;1.27;1.05;;;;;;;27.26;51.31;92816.34;4918057;29;20059;-77
2021/07/23 06:49:21;;;;;;;1.25;1.00;;;;;;;27.30;51.85;92827.09;4898466;29;20259;-77
2021/07/23 06:51:46;;;;;;;2.10;1.85;;;;;;;27.16;52.28;92823.22;4913456;29;20050;-77
2021/07/23 06:54:13;;;;;;;1.98;1.48;;;;;;;25.59;55.74;92830.53;4924794;29;20380;-77
2021/07/23 06:56:39;;;;;;;3.25;1.35;;;;;;;24.79;59.34;92830.94;4930015;29;20561;-81
2021/07/23 06:59:05;;;;;;;2.40;1.48;;;;;;;24.26;59.90;92831.84;4922380;29;20091;-80
2021/07/23 07:01:30;;;;;;;0.77;0.70;;;;;;;23.72;62.58;92825.75;4910685;29;20377;-80
2021/07/23 07:03:56;;;;;;;1.77;1.08;;;;;;;23.36;64.44;92827.88;4936882;29;20050;-79
2021/07/23 07:06:21;;;;;;;1.58;1.30;;;;;;;22.99;66.42;92822.25;4922877;29;20510;-81
2021/07/23 07:08:49;;;;;;;1.48;1.02;;;;;;;23.12;65.41;92822.91;4891725;29;20044;-78
2021/07/23 07:11:16;;;;;;;2.83;1.63;;;;;;;23.20;65.28;92822.66;4909798;29;20066;-79
2021/07/23 07:13:42;;;;;;;0.63;0.52;;;;;;;22.95;66.08;92821.47;4924183;29;20052;-78
2021/07/23 07:16:07;;;;;;;1.17;1.08;;;;;;;22.61;67.81;92819.34;4918289;29;20469;-81
2021/07/23 07:18:33;;;;;;;1.63;1.17;;;;;;;;;;4920624;29;20130;-78
2021/07/23 07:20:58;;;;;;;1.77;1.20;;;;;;;22.54;67.26;92813.88;4915012;29;20569;-77
2021/07/23 07:23:24;;;;;;;1.58;1.40;;;;;;;22.53;67.41;92809.66;4920756;29;20055;-78
2021/07/23 07:25:50;;;;;;;1.73;1.15;;;;;;;22.79;66.57;92808.97;4936208;29;20059;-81
2021/07/23 07:28:15;;;;;;;1.08;0.93;;;;;;;22.65;67.46;92812.16;4936773;29;20075;-82
2021/07/23 07:30:45;;;;;;;2.30;1.42;;;;;;;22.58;67.01;92811.25;4912197;29;20580;-84
2021/07/23 07:33:11;;;;;;;1.50;1.08;;;;;;;22.54;66.93;92816.53;4932657;29;20524;-82
2021/07/23 07:35:37;;;;;;;1.83;1.23;;;;;;;23.31;65.03;92816.75;4920956;29;20365;-84
2021/07/23 07:38:03;;;;;;;1.33;1.08;;;;;;;23.70;63.37;92814.66;4921085;29;20107;-80
2021/07/23 07:40:29;;;;;;;2.38;1.92;;;;;;;23.58;64.40;92814.88;4922044;29;20154;-77
2021/07/23 07:42:54;;;;;;;1.48;1.05;;;;;;;23.59;63.01;92821.72;4909614;29;20510;-83
2021/07/23 07:45:20;;;;;;;2.10;1.17;;;;;;;23.78;63.25;92818.25;4904147;29;20412;-80
2021/07/23 07:47:46;;;;;;;0.77;0.77;;;;;;;23.49;66.09;92823.88;4932045;29;20112;-81
2021/07/23 07:50:11;;;;;;;1.55;1.25;;;;;;;23.58;65.50;92820.19;4920934;29;20130;-79
2021/07/23 07:52:37;;;;;;;3.83;1.65;;;;;;;23.39;66.23;92818.38;4924604;29;20054;-81
2021/07/23 07:55:03;;;;;;;2.65;2.22;;;;;;;22.93;67.94;92816.47;4924057;29;20098;-78
2021/07/23 07:57:29;;;;;;;2.95;2.10;;;;;;;23.12;66.93;92820.22;4943513;29;20099;-82
2021/07/23 07:59:57;;;;;;;2.58;1.88;;;;;;;23.14;67.42;92823.31;4934785;29;20098;-82
2021/07/23 08:02:23;;;;;;;1.80;1.02;;;;;;;23.47;67.05;92820.03;4929302;29;20399;-82
2021/07/23 08:04:49;;;;;;;1.30;1.08;;;;;;;23.17;68.24;92812.72;4925067;29;20048;-80
2021/07/23 08:07:20;;;;;;;1.42;0.95;;;;;;;22.95;68.96;92811.53;4926167;29;20054;-80
2021/07/23 08:09:53;;;;;;;1.60;1.17;;;;;;;23.11;67.78;92816.03;4912045;29;20056;-79
2021/07/23 08:12:21;;;;;;;1.85;1.23;;;;;;;22.81;68.67;92812.06;4924330;29;20046;-82
2021/07/23 08:14:47;;;;;;;1.55;1.30;;;;;;;23.37;67.22;92821.41;4924425;29;20118;-81
2021/07/23 08:17:13;;;;;;;3.35;2.00;;;;;;;23.37;65.96;92816.09;4924559;29;20065;-82
2021/07/23 08:19:38;;;;;;;2.60;2.00;;;;;;;23.48;64.74;92813.56;4942015;29;20115;-84
2021/07/23 08:22:05;;;;;;;1.92;1.48;;;;;;;23.31;66.48;92820.19;4928033;29;20059;-82
2021/07/23 08:24:31;;;;;;;1.98;1.52;;;;;;;23.38;65.27;92822.19;4924195;29;20048;-78
2021/07/23 08:26:57;;;;;;;2.35;1.45;;;;;;;23.68;64.96;92808.88;4923533;29;20043;-80
2021/07/23 08:29:22;;;;;;;1.05;0.80;;;;;;;23.59;64.43;92816.38;4932840;29;20047;-81
2021/07/23 08:31:48;;;;;;;1.60;1.30;;;;;;;23.38;64.88;92814.94;4939868;29;20052;-82
2021/07/23 08:34:14;;;;;;;2.70;1.73;;;;;;;23.64;64.62;92813.41;4934408;29;20039;-81
2021/07/23 08:36:40;;;;;;;1.27;1.00;;;;;;;23.97;62.34;92815.44;4923649;29;20078;-82
2021/07/23 08:39:05;;;;;;;1.85;1.10;;;;;;;23.82;60.49;92817.16;4906303;29;20040;-83
2021/07/23 08:41:31;;;;;;;1.08;0.88;;;;;;;24.65;59.91;92813.59;4912788;29;20040;-80
2021/07/23 08:43:57;;;;;;;1.00;0.77;;;;;;;23.77;63.56;92816.69;4911206;29;20498;-81
2021/07/23 08:46:23;;;;;;;1.63;1.20;;;;;;;23.98;62.20;92821.53;4913018;29;20113;-82
2021/07/23 08:48:49;;;;;;;1.17;0.82;;;;;;;24.60;57.81;92818.50;4913244;29;20080;-78
2021/07/23 08:51:19;;;;;;;1.95;1.40;;;;;;;24.26;61.17;92813.88;4920047;29;20103;-77
2021/07/23 08:53:45;;;;;;;1.67;1.33;;;;;;;24.54;61.02;92825.31;4913294;29;20115;-78
2021/07/23 08:56:11;;;;;;;1.85;1.33;;;;;;;24.41;60.17;92819.41;4908622;29;20423;-78
2021/07/23 08:58:37;;;;;;;1.83;1.38;;;;;;;24.21;61.68;92818.81;4926552;29;20143;-78
2021/07/23 09:01:03;;;;;;;3.33;2.10;;;;;;;24.55;58.41;92826.88;4903737;29;20135;-78
2021/07/23 09:03:29;;;;;;;1.73;1.30;;;;;;;24.42;60.37;92829.75;4935505;29;20051;-80
2021/07/23 09:05:54;;;;;;;1.83;1.30;;;;;;;24.68;56.08;92831.59;4925604;29;20048;-80
2021/07/23 09:08:21;;;;;;;2.53;1.92;;;;;;;25.08;55.84;92821.28;4930858;29;20054;-79
2021/07/23 09:11:02;;;;;;;2.75;1.73;;;;;;;24.47;58.88;92815.28;4922383;29;20039;-78
2021/07/23 09:13:28;;;;;;;1.85;1.20;;;;;;;24.25;60.91;92825.72;4925135;29;20410;-79
2021/07/23 09:15:57;;;;;;;4.85;1.23;;;;;;;24.14;60.24;92816.81;4906159;29;20052;-80
2021/07/23 09:18:29;;;;;;;1.40;1.20;;;;;;;24.33;60.90;92815.88;4920242;29;20423;-78
2021/07/23 09:21:00;;;;;;;3.33;2.05;;;;;;;24.12;60.70;92816.41;4900748;29;20047;-79
2021/07/23 09:23:32;;;;;;;5.03;2.13;;;;;;;23.95;58.67;92808.91;4888326;29;20056;-78
2021/07/23 09:26:02;;;;;;;3.28;1.60;;;;;;;24.28;58.42;92811.63;4921764;29;20180;-78
2021/07/23 09:28:31;;;;;;;3.40;1.17;;;;;;;24.08;58.23;92804.88;4927750;29;20052;-78
2021/07/23 09:30:59;;;;;;;1.45;1.35;;;;;;;24.11;56.36;92804.13;4930280;29;20044;-78
2021/07/23 09:33:27;;;;;;;3.22;2.17;;;;;;;24.25;56.27;92798.97;4921038;29;20064;-77
2021/07/23 09:36:04;;;;;;;1.83;1.33;;;;;;;24.18;54.89;92792.75;4903877;29;20043;-79
2021/07/23 09:38:46;;;;;;;1.83;1.10;;;;;;;23.88;56.21;92796.97;4920527;29;20071;-79
2021/07/23 09:41:21;;;;;;;1.30;1.10;;;;;;;24.37;53.51;92794.53;4916313;29;20051;-79
2021/07/23 09:43:55;;;;;;;2.50;1.65;;;;;;;24.55;55.62;92805.47;4927796;29;20127;-79
2021/07/23 09:46:24;;;;;;;0.65;0.65;;;;;;;24.62;54.00;92794.84;4920813;29;20048;-79
2021/07/23 09:48:52;;;;;;;1.70;1.13;;;;;;;24.67;54.82;92797.16;4886692;29;20040;-78
2021/07/23 09:51:20;;;;;;;0.90;0.80;;;;;;;24.11;55.24;92788.09;4918923;29;20048;-77
2021/07/23 09:53:45;;;;;;;1.92;1.33;;;;;;;24.81;54.41;92785.84;4919616;29;20054;-77
2021/07/23 09:56:11;;;;;;;1.73;1.23;;;;;;;24.80;54.20;92778.94;4920507;29;20047;-79
2021/07/23 09:58:41;;;;;;;1.33;1.13;;;;;;;24.68;54.63;92788.78;4904245;29;20064;-78
2021/07/23 10:03:33;;;;;;;1.80;1.08;;;;;;;24.47;53.40;92785.84;4929001;29;20059;-80
2021/07/23 10:06:03;;;;;;;2.42;1.20;;;;;;;24.25;52.99;92779.47;4908012;29;20442;-81
2021/07/23 10:08:32;;;;;;;1.13;1.00;;;;;;;24.48;53.98;92780.16;4939439;29;20062;-80
2021/07/23 10:11:00;;;;;;;2.28;1.50;;;;;;;24.05;55.98;92768.94;4942910;29;20048;-80
2021/07/23 10:13:29;;;;;;;2.03;1.52;;;;;;;24.33;56.43;92785.69;4912323;29;20062;-79
2021/07/23 10:15:55;;;;;;;6.25;1.85;;;;;;;23.93;55.41;92774.50;4919939;29;20512;-80
2021/07/23 10:18:23;;;;;;;1.10;1.00;;;;;;;24.07;55.72;92774.69;4930174;29;20099;-79
2021/07/23 10:20:49;;;;;;;2.58;1.88;;;;;;;24.08;56.42;92770.13;4902008;29;20055;-78
2021/07/23 10:23:21;;;;;;;1.85;1.65;;;;;;;24.31;55.05;92770.00;4926225;29;20473;-80
2021/07/23 10:25:51;;;;;;;2.05;1.50;;;;;;;24.59;55.42;92774.94;4936350;29;20051;-77
2021/07/23 10:28:43;;;;;;;2.10;1.42;;;;;;;24.76;54.93;92775.47;4922810;29;20577;-78
2021/07/23 10:31:17;;;;;;;1.42;1.25;;;;;;;24.85;53.15;92776.69;4915711;29;20071;-78
2021/07/23 10:33:55;;;;;;;1.20;1.05;;;;;;;25.51;52.25;92760.81;4929071;29;20328;-81
2021/07/23 10:36:27;;;;;;;1.55;1.13;;;;;;;25.48;53.97;92763.47;4936549;29;20079;-78
2021/07/23 10:39:05;;;;;;;3.28;1.65;;;;;;;25.72;54.85;92760.16;4912739;29;20048;-78
2021/07/23 10:41:31;;;;;;;2.13;1.50;;;;;;;25.12;54.37;92763.16;4917454;29;20051;-79
2021/07/23 10:43:57;;;;;;;2.45;1.73;;;;;;;25.76;53.42;92760.19;4919460;29;20048;-82
2021/07/23 10:46:43;;;;;;;3.30;1.52;;;;;;;25.55;53.04;92753.53;4918893;29;20052;-78
2021/07/23 10:49:27;;;;;;;1.70;1.20;;;;;;;25.76;52.68;92768.25;4910842;29;20414;-80
2021/07/23 10:52:03;;;;;;;2.80;0.98;;;;;;;25.68;52.76;92761.28;4927111;29;20039;-82
2021/07/23 10:54:34;;;;;;;1.02;0.98;;;;;;;25.09;53.30;92758.56;4904184;29;20056;-82
2021/07/23 10:57:03;;;;;;;1.25;1.02;;;;;;;25.29;52.36;92759.13;4921723;29;20064;-80
2021/07/23 10:59:48;;;;;;;2.67;1.73;;;;;;;25.05;53.48;92753.16;4918055;29;20044;-78
2021/07/23 11:02:14;;;;;;;3.53;1.75;;;;;;;25.53;53.84;92755.84;4926471;29;20127;-77
2021/07/23 11:04:44;;;;;;;1.27;1.10;;;;;;;26.18;51.28;92758.88;4927976;29;20131;-82
2021/07/23 11:07:10;;;;;;;1.63;1.02;;;;;;;25.49;53.79;92749.69;4935146;29;20115;-79
2021/07/23 11:09:37;;;;;;;2.95;1.55;;;;;;;25.43;53.52;92750.41;4917096;29;20461;-77
2021/07/23 11:12:21;;;;;;;3.20;1.52;;;;;;;25.38;54.30;92745.41;4917147;29;20059;-78
2021/07/23 11:14:52;;;;;;;2.00;1.50;;;;;;;25.62;53.04;92752.06;4922158;29;20375;-78
2021/07/23 11:17:19;;;;;;;2.13;1.38;;;;;;;25.41;53.38;92745.41;4915146;29;20047;-78
2021/07/23 11:19:49;;;;;;;2.40;1.70;;;;;;;25.00;54.74;92745.47;4924092;29;20043;-80
2021/07/23 11:22:26;;;;;;;3.45;1.92;;;;;;;25.61;52.56;92745.16;4934850;29;20043;-79
2021/07/23 11:25:00;;;;;;;2.17;1.33;;;;;;;26.03;52.65;92746.53;4920918;29;20109;-79
2021/07/23 11:27:28;;;;;;;1.95;1.25;;;;;;;25.82;52.35;92747.94;4915806;29;20048;-77
2021/07/23 11:29:54;;;;;;;1.75;1.45;;;;;;;26.35;52.11;92738.63;4916217;29;20036;-78
2021/07/23 11:32:21;;;;;;;1.75;1.42;;;;;;;26.27;50.97;92737.06;4922285;29;20424;-78
2021/07/23 11:35:00;;;;;;;2.25;1.67;;;;;;;25.65;53.28;92736.00;4927625;29;20047;-78
2021/07/23 11:37:26;;;;;;;1.88;1.20;;;;;;;25.45;52.14;92738.19;4920645;29;20048;-78
2021/07/23 11:40:02;;;;;;;4.32;1.70;;;;;;;25.42;51.95;92728.22;4929000;29;20044;-78
2021/07/23 11:42:34;;;;;;;2.05;1.73;;;;;;;25.72;51.25;92727.22;4929288;29;20048;-78
2021/07/23 11:45:01;;;;;;;1.33;1.23;;;;;;;25.63;52.58;92721.44;4910590;29;20467;-78
2021/07/23 11:47:29;;;;;;;3.30;2.15;;;;;;;25.97;51.15;92722.00;4917876;29;20122;-79
2021/07/23 11:49:56;;;;;;;3.30;1.98;;;;;;;25.95;52.33;92717.00;4932804;29;20039;-82
2021/07/23 11:52:23;;;;;;;1.48;1.38;;;;;;;26.14;51.15;92713.28;4919333;29;20530;-77
2021/07/23 11:55:00;;;;;;;1.75;1.23;;;;;;;26.27;51.63;92711.00;4925152;29;20114;-79
2021/07/23 11:57:28;;;;;;;2.75;1.63;;;;;;;26.71;52.29;92711.91;4918087;29;20552;-78
2021/07/23 11:59:53;;;;;;;2.53;1.90;;;;;;;26.56;50.79;92711.84;4914238;29;20040;-80
2021/07/23 12:02:27;;;;;;;3.08;1.77;;;;;;;26.17;49.92;92707.13;4929440;29;20079;-80
2021/07/23 12:05:11;;;;;;;3.17;1.35;;;;;;;25.69;50.28;92698.47;4930672;29;20138;-79
2021/07/23 12:07:41;;;;;;;3.92;1.65;;;;;;;25.64;52.06;92706.88;4914206;29;20414;-78
2021/07/23 12:10:13;;;;;;;4.10;2.20;;;;;;;25.89;52.02;92705.09;4926732;29;20139;-78
2021/07/23 12:12:40;;;;;;;2.78;1.55;;;;;;;25.77;52.82;92695.47;4929929;29;20047;-79
2021/07/23 12:15:09;;;;;;;3.97;2.13;;;;;;;26.42;52.29;92700.31;4932530;29;20597;-78
2021/07/23 12:17:36;;;;;;;3.05;1.83;;;;;;;26.48;50.91;92696.09;4915539;29;20052;-79
2021/07/23 12:20:04;;;;;;;1.60;1.35;;;;;;;26.02;51.45;92692.13;4915671;29;20506;-78
2021/07/23 12:22:30;;;;;;;2.28;1.17;;;;;;;25.89;52.46;92691.69;4934960;29;20059;-79
2021/07/23 12:24:56;;;;;;;3.05;1.75;;;;;;;25.71;53.88;92690.84;4923523;29;20035;-79
2021/07/23 12:27:23;;;;;;;2.53;1.98;;;;;;;25.80;53.95;92683.22;4929656;29;20131;-80
2021/07/23 12:29:52;;;;;;;2.22;1.27;;;;;;;26.00;53.79;92688.31;4918425;29;20084;-82
2021/07/23 12:32:23;;;;;;;1.63;1.10;;;;;;;26.17;53.81;92685.69;4901436;29;20052;-82
2021/07/23 12:35:00;;;;;;;3.30;1.92;;;;;;;26.29;52.09;92689.91;4916012;29;20526;-82
2021/07/23 12:37:26;;;;;;;2.72;1.70;;;;;;;26.69;54.43;92677.38;4914456;29;20077;-81
2021/07/23 12:40:02;;;;;;;2.70;1.80;;;;;;;26.93;52.21;92681.22;4935696;29;20068;-81
2021/07/23 12:42:30;;;;;;;2.53;1.02;;;;;;;26.36;51.93;92686.47;4938044;29;20518;-81
2021/07/23 12:44:56;;;;;;;2.55;1.77;;;;;;;25.93;53.38;92681.75;4920347;29;20514;-83
2021/07/23 12:47:26;;;;;;;2.13;1.48;;;;;;;25.59;55.08;92683.13;4918962;29;20131;-81
2021/07/23 12:49:54;;;;;;;1.90;1.30;;;;;;;25.36;54.76;92686.06;4921778;29;20126;-81
2021/07/23 12:52:19;;;;;;;1.77;1.20;;;;;;;25.54;54.27;92685.00;4930058;29;20035;-80
2021/07/23 12:54:50;;;;;;;2.00;1.23;;;;;;;25.40;55.25;92676.13;4921280;29;20052;-81
2021/07/23 12:57:31;;;;;;;3.47;2.38;;;;;;;25.71;54.44;92675.53;4921171;29;20047;-79
2021/07/23 13:00:23;;;;;;;2.55;1.63;;;;;;;25.90;54.36;92682.53;4938507;29;20062;-80
2021/07/23 13:02:49;;;;;;;;;;;;;;;26.04;53.32;92675.69;4929901;29;20465;-79
2021/07/23 13:05:15;;;;;;;1.45;1.15;;;;;;;26.24;53.42;92668.84;4919671;29;19915;-79
2021/07/23 13:07:44;;;;;;;2.15;1.83;;;;;;;26.43;52.90;92678.44;4920695;29;20068;-80
2021/07/23 13:10:17;;;;;;;1.50;1.08;;;;;;;26.21;50.87;92680.34;4920473;29;20530;-80
2021/07/23 13:12:46;;;;;;;4.82;2.40;;;;;;;26.03;52.67;92680.28;4903603;29;20055;-82
2021/07/23 13:15:13;;;;;;;3.03;2.15;;;;;;;25.98;52.69;92674.50;4887389;29;20135;-80
2021/07/23 13:17:39;;;;;;;3.03;1.67;;;;;;;25.91;52.61;92672.56;4922295;29;20047;-81
2021/07/23 13:20:07;;;;;;;3.03;1.95;;;;;;;25.75;53.07;92676.28;4905974;29;20031;-79
2021/07/23 13:22:37;;;;;;;4.25;2.08;;;;;;;25.83;53.72;92673.66;4935455;29;20040;-82
2021/07/23 13:25:08;;;;;;;1.27;1.17;;;;;;;25.82;54.01;92675.56;4920323;29;20047;-83
2021/07/23 13:27:34;;;;;;;2.90;1.92;;;;;;;25.54;55.11;92666.25;4937912;29;20047;-80
2021/07/23 13:29:59;;;;;;;3.92;2.60;;;;;;;26.00;53.72;92680.25;4935235;29;20059;-80
2021/07/23 13:32:25;;;;;;;1.70;1.00;;;;;;;26.05;52.81;92674.53;4928408;29;20044;-78
2021/07/23 13:34:51;;;;;;;2.45;1.67;;;;;;;26.73;51.66;92662.03;4928463;29;20044;-79
2021/07/23 13:37:24;;;;;;;2.70;1.90;;;;;;;26.44;52.62;92666.56;4904339;29;20423;-80
2021/07/23 13:39:55;;;;;;;3.35;2.10;;;;;;;26.86;51.49;92656.25;4908302;29;20319;-79
2021/07/23 13:42:23;;;;;;;1.63;1.20;;;;;;;26.83;50.01;92659.72;4924727;29;20066;-88
2021/07/23 13:44:49;;;;;;;2.85;2.40;;;;;;;27.19;50.49;92661.22;4926200;29;20047;-80
2021/07/23 13:47:16;;;;;;;4.25;2.50;;;;;;;27.21;49.85;92660.88;4925491;29;20044;-79
2021/07/23 13:49:42;;;;;;;2.85;2.28;;;;;;;27.30;50.18;92663.16;4933853;29;20112;-79
2021/07/23 13:52:08;;;;;;;4.32;2.95;;;;;;;27.95;49.13;92653.00;4926485;29;20058;-80
2021/07/23 13:54:34;;;;;;;2.67;1.75;;;;;;;28.37;48.02;92659.31;4922923;29;20052;-81
2021/07/23 13:56:59;;;;;;;1.92;1.38;;;;;;;28.79;48.10;92649.44;4920228;29;20044;-80
2021/07/23 13:59:25;;;;;;;3.22;1.92;;;;;;;27.76;50.26;92659.56;4909602;29;20727;-84
2021/07/23 14:01:52;;;;;;;2.97;2.30;;;;;;;27.66;48.81;92655.00;4924276;29;20421;-80
2021/07/23 14:04:18;;;;;;;2.72;1.67;;;;;;;27.65;48.91;92653.47;4931424;29;20383;-80
2021/07/23 14:06:44;;;;;;;2.92;1.75;;;;;;;28.19;48.25;92659.41;4917989;29;20081;-80
2021/07/23 14:09:09;;;;;;;3.53;2.45;;;;;;;28.57;47.13;92652.28;4916843;29;20103;-79
2021/07/23 14:11:35;;;;;;;3.40;2.40;;;;;;;27.96;49.50;92647.22;4909294;29;20391;-80
2021/07/23 14:14:02;;;;;;;3.50;2.33;;;;;;;28.20;48.08;92642.88;4936250;29;20463;-79
2021/07/23 14:16:28;;;;;;;1.80;1.33;;;;;;;27.93;49.63;92634.56;4918455;29;20059;-79
2021/07/23 14:18:53;;;;;;;3.35;1.80;;;;;;;27.62;50.37;92639.66;4920635;29;20047;-79